Aeroporto :
LOGIN :

Iscrizione | Disclaimer

   EN    FR    IT 

 










Sommario :    VFR   VFR Marginale   IFR   IFR Intensivo   IFR Molto Intensivo
Visibilità : 
Base nubi : 
>= 8 km
>= 3000ft
5 / 8 km
1000 / 3000 ft
1500m / 5 km
500 / 1000 ft
800 / 1500m
200 / 500 ft
< 800m
< 200 ft
Simboli :   Temporali  Nebbia  Neve Forte  Precipitazioni Forti  Vento > 20 kt
SIGMETs :   Varie  Temporali  Ghiacco  Turbolenza  Onda orograficha  Ceneri Vulcaniche







- Altitudine del aeroporto : 1411 ft
- Codice IATA : GVA


LSGG - Genève Cointrin

ULTIMO METAR :
  • 200120Z AUTO 24005KT 9999 BKN080 SCT///CB 19/10 Q1014 NOSIG

METARs OBSOLETI :
  • 200050Z AUTO 25003KT 9999 FEW080 SCT090 //////TCU 19/10 Q1014 NOSIG
  • 200020Z AUTO 24003KT 220V290 9999 FEW085 //////TCU 19/09 Q1014 NOSIG
  • 192350Z AUTO 26007KT 9999 BKN090 //////TCU 20/10 Q1014 NOSIG
  • 192320Z AUTO 23008KT 200V270 9999 SCT085 SCT095 OVC170 //////TCU 22/08 Q1014 NOSIG
  • 192250Z AUTO 21005KT 180V270 9999 BKN090 //////TCU 22/08 Q1014 NOSIG

TAF TAF LSGG
Valido dal 20 a 00 ore il 21 a 06 ore UTC


192325Z 2000/2106 23007KT 9999 FEW060 SCT150 TX25/2015Z TN16/2004Z TN15/2104Z
TEMPO 2003/2009 SHRA
PROB30
TEMPO 2004/2007 23015G25KT TSRA FEW040CB
BECMG 2018/2021 VRB03KT
BECMG 2100/2103 SHRA
ATIS : +41 22 417 40 81
Nessun NOTAM noto per questo aeroporto.



MetMap, La meteo Aeronautica in un colpo d'occhio ! - Copyright ORBIFLY Dicembre 2007 - Disclaimer

ORBIFLY MET'MAP TEAM :

Programmazione e sviluppo : Alexandra Zaïnal
Concezione e sviluppo : Baudouin d'Aumeries
Co-Programmazione e sviluppo : Marc-Olivier Méhu
Supporto tecnico e logistico : Manuel Goepfert
Aiuto per la traduzione : Arnaldo La Scala

Contatto : metmap@orbifly.com




FONTI E CREDITI :

   NOAA